sensor_id;sensor_type;location;lat;lon;timestamp;P1;durP1;ratioP1;P2;durP2;ratioP2
31836;SDS011;18401;49.344;6.240;2023-04-12T00:01:34;11.32;;;2.75;;
31836;SDS011;18401;49.344;6.240;2023-04-12T00:04:00;8.07;;;2.38;;
31836;SDS011;18401;49.344;6.240;2023-04-12T00:06:27;8.93;;;2.63;;
31836;SDS011;18401;49.344;6.240;2023-04-12T00:08:56;14.68;;;2.97;;
31836;SDS011;18401;49.344;6.240;2023-04-12T00:11:23;8.73;;;2.83;;
31836;SDS011;18401;49.344;6.240;2023-04-12T00:13:48;12.63;;;2.67;;
31836;SDS011;18401;49.344;6.240;2023-04-12T00:16:14;10.55;;;2.75;;
31836;SDS011;18401;49.344;6.240;2023-04-12T00:18:40;4.32;;;2.10;;
31836;SDS011;18401;49.344;6.240;2023-04-12T00:21:06;9.93;;;2.58;;
31836;SDS011;18401;49.344;6.240;2023-04-12T00:23:34;9.13;;;2.70;;
31836;SDS011;18401;49.344;6.240;2023-04-12T00:26:01;8.00;;;2.55;;
31836;SDS011;18401;49.344;6.240;2023-04-12T00:28:28;8.75;;;2.28;;
31836;SDS011;18401;49.344;6.240;2023-04-12T00:30:54;13.30;;;2.60;;
31836;SDS011;18401;49.344;6.240;2023-04-12T00:33:19;7.70;;;2.85;;
31836;SDS011;18401;49.344;6.240;2023-04-12T00:35:45;4.55;;;2.30;;
31836;SDS011;18401;49.344;6.240;2023-04-12T00:38:11;5.88;;;2.20;;
31836;SDS011;18401;49.344;6.240;2023-04-12T00:40:40;10.70;;;2.50;;
31836;SDS011;18401;49.344;6.240;2023-04-12T00:43:07;6.75;;;1.90;;
31836;SDS011;18401;49.344;6.240;2023-04-12T00:45:34;11.18;;;2.78;;
31836;SDS011;18401;49.344;6.240;2023-04-12T00:48:01;7.28;;;2.30;;
31836;SDS011;18401;49.344;6.240;2023-04-12T00:50:29;2.95;;;2.22;;
31836;SDS011;18401;49.344;6.240;2023-04-12T00:52:55;8.02;;;2.10;;
31836;SDS011;18401;49.344;6.240;2023-04-12T00:55:22;12.10;;;2.47;;
31836;SDS011;18401;49.344;6.240;2023-04-12T00:57:48;6.63;;;2.38;;
31836;SDS011;18401;49.344;6.240;2023-04-12T01:00:15;11.38;;;2.67;;
31836;SDS011;18401;49.344;6.240;2023-04-12T01:02:42;4.40;;;2.10;;
31836;SDS011;18401;49.344;6.240;2023-04-12T01:05:17;4.45;;;1.90;;
31836;SDS011;18401;49.344;6.240;2023-04-12T01:16:03;9.70;;;2.17;;
31836;SDS011;18401;49.344;6.240;2023-04-12T01:18:36;9.88;;;2.28;;
31836;SDS011;18401;49.344;6.240;2023-04-12T01:21:07;8.07;;;2.10;;
31836;SDS011;18401;49.344;6.240;2023-04-12T01:28:49;9.82;;;2.15;;
31836;SDS011;18401;49.344;6.240;2023-04-12T01:31:17;5.70;;;2.47;;
31836;SDS011;18401;49.344;6.240;2023-04-12T01:33:44;4.13;;;2.15;;
31836;SDS011;18401;49.344;6.240;2023-04-12T01:36:12;8.48;;;2.63;;
31836;SDS011;18401;49.344;6.240;2023-04-12T01:38:41;4.38;;;2.45;;
31836;SDS011;18401;49.344;6.240;2023-04-12T01:41:07;4.95;;;2.40;;
31836;SDS011;18401;49.344;6.240;2023-04-12T01:43:39;3.78;;;2.20;;
31836;SDS011;18401;49.344;6.240;2023-04-12T01:46:11;5.97;;;2.17;;
31836;SDS011;18401;49.344;6.240;2023-04-12T01:48:41;2.90;;;2.47;;
31836;SDS011;18401;49.344;6.240;2023-04-12T01:51:32;6.60;;;2.63;;
31836;SDS011;18401;49.344;6.240;2023-04-12T01:54:12;9.10;;;2.60;;
31836;SDS011;18401;49.344;6.240;2023-04-12T01:56:43;8.23;;;2.83;;
31836;SDS011;18401;49.344;6.240;2023-04-12T01:59:13;6.63;;;2.35;;
31836;SDS011;18401;49.344;6.240;2023-04-12T02:01:40;10.77;;;3.70;;
31836;SDS011;18401;49.344;6.240;2023-04-12T02:04:07;5.53;;;2.45;;
31836;SDS011;18401;49.344;6.240;2023-04-12T02:06:33;4.13;;;2.70;;
31836;SDS011;18401;49.344;6.240;2023-04-12T02:09:00;7.63;;;2.60;;
31836;SDS011;18401;49.344;6.240;2023-04-12T02:11:27;7.63;;;2.80;;
31836;SDS011;18401;49.344;6.240;2023-04-12T02:13:53;5.68;;;2.63;;
31836;SDS011;18401;49.344;6.240;2023-04-12T02:16:19;5.93;;;2.75;;
31836;SDS011;18401;49.344;6.240;2023-04-12T02:18:46;4.38;;;2.80;;
31836;SDS011;18401;49.344;6.240;2023-04-12T02:21:15;9.02;;;3.35;;
31836;SDS011;18401;49.344;6.240;2023-04-12T02:23:41;6.15;;;2.67;;
31836;SDS011;18401;49.344;6.240;2023-04-12T02:26:08;9.98;;;3.00;;
31836;SDS011;18401;49.344;6.240;2023-04-12T02:28:35;8.05;;;2.75;;
31836;SDS011;18401;49.344;6.240;2023-04-12T02:31:04;6.65;;;2.75;;
31836;SDS011;18401;49.344;6.240;2023-04-12T02:33:30;7.38;;;2.72;;
31836;SDS011;18401;49.344;6.240;2023-04-12T02:35:57;10.55;;;2.60;;
31836;SDS011;18401;49.344;6.240;2023-04-12T02:38:23;8.77;;;2.80;;
31836;SDS011;18401;49.344;6.240;2023-04-12T02:40:49;7.47;;;2.83;;
31836;SDS011;18401;49.344;6.240;2023-04-12T02:43:15;10.20;;;2.65;;
31836;SDS011;18401;49.344;6.240;2023-04-12T02:45:40;9.32;;;2.92;;
31836;SDS011;18401;49.344;6.240;2023-04-12T02:48:06;11.32;;;2.83;;
31836;SDS011;18401;49.344;6.240;2023-04-12T02:50:32;6.18;;;2.63;;
31836;SDS011;18401;49.344;6.240;2023-04-12T02:52:58;6.93;;;2.25;;
31836;SDS011;18401;49.344;6.240;2023-04-12T02:55:23;6.97;;;2.40;;
31836;SDS011;18401;49.344;6.240;2023-04-12T02:57:50;5.32;;;2.38;;
31836;SDS011;18401;49.344;6.240;2023-04-12T03:00:15;7.63;;;2.60;;
31836;SDS011;18401;49.344;6.240;2023-04-12T03:02:42;7.57;;;2.45;;
31836;SDS011;18401;49.344;6.240;2023-04-12T03:05:08;9.43;;;2.70;;
31836;SDS011;18401;49.344;6.240;2023-04-12T03:07:34;3.95;;;2.45;;
31836;SDS011;18401;49.344;6.240;2023-04-12T03:10:01;5.45;;;3.00;;
31836;SDS011;18401;49.344;6.240;2023-04-12T03:12:30;8.98;;;2.90;;
31836;SDS011;18401;49.344;6.240;2023-04-12T03:14:55;11.73;;;2.95;;
31836;SDS011;18401;49.344;6.240;2023-04-12T03:17:21;7.82;;;2.85;;
31836;SDS011;18401;49.344;6.240;2023-04-12T03:19:47;3.63;;;1.95;;
31836;SDS011;18401;49.344;6.240;2023-04-12T03:22:13;7.57;;;2.40;;
31836;SDS011;18401;49.344;6.240;2023-04-12T03:24:39;4.85;;;2.33;;
31836;SDS011;18401;49.344;6.240;2023-04-12T03:27:06;5.05;;;2.70;;
31836;SDS011;18401;49.344;6.240;2023-04-12T03:29:32;10.80;;;3.00;;
31836;SDS011;18401;49.344;6.240;2023-04-12T03:31:58;7.30;;;2.53;;
31836;SDS011;18401;49.344;6.240;2023-04-12T03:34:24;8.98;;;2.70;;
31836;SDS011;18401;49.344;6.240;2023-04-12T03:36:56;9.13;;;2.67;;
31836;SDS011;18401;49.344;6.240;2023-04-12T03:39:22;6.80;;;3.10;;
31836;SDS011;18401;49.344;6.240;2023-04-12T03:41:48;6.35;;;2.85;;
31836;SDS011;18401;49.344;6.240;2023-04-12T03:44:14;6.07;;;2.60;;
31836;SDS011;18401;49.344;6.240;2023-04-12T03:46:40;10.48;;;3.45;;
31836;SDS011;18401;49.344;6.240;2023-04-12T03:49:06;6.80;;;3.08;;
31836;SDS011;18401;49.344;6.240;2023-04-12T03:51:31;8.25;;;2.70;;
31836;SDS011;18401;49.344;6.240;2023-04-12T03:53:57;9.90;;;2.88;;
31836;SDS011;18401;49.344;6.240;2023-04-12T03:56:23;11.68;;;3.33;;
31836;SDS011;18401;49.344;6.240;2023-04-12T03:58:48;8.82;;;3.08;;
31836;SDS011;18401;49.344;6.240;2023-04-12T04:01:14;4.63;;;2.80;;
31836;SDS011;18401;49.344;6.240;2023-04-12T04:03:41;5.10;;;2.63;;
31836;SDS011;18401;49.344;6.240;2023-04-12T04:06:08;7.00;;;3.30;;
31836;SDS011;18401;49.344;6.240;2023-04-12T04:08:35;10.57;;;3.50;;
31836;SDS011;18401;49.344;6.240;2023-04-12T04:11:01;9.70;;;3.75;;
31836;SDS011;18401;49.344;6.240;2023-04-12T04:13:27;9.27;;;3.80;;
31836;SDS011;18401;49.344;6.240;2023-04-12T04:16:01;10.45;;;3.63;;
31836;SDS011;18401;49.344;6.240;2023-04-12T04:18:28;11.80;;;3.38;;
31836;SDS011;18401;49.344;6.240;2023-04-12T04:20:54;7.90;;;3.72;;
31836;SDS011;18401;49.344;6.240;2023-04-12T04:23:20;9.55;;;3.60;;
31836;SDS011;18401;49.344;6.240;2023-04-12T04:25:47;13.43;;;3.33;;
31836;SDS011;18401;49.344;6.240;2023-04-12T04:28:13;11.23;;;3.47;;
31836;SDS011;18401;49.344;6.240;2023-04-12T04:30:42;6.75;;;3.38;;
31836;SDS011;18401;49.344;6.240;2023-04-12T04:33:10;8.57;;;3.80;;
31836;SDS011;18401;49.344;6.240;2023-04-12T04:35:39;11.43;;;3.63;;
31836;SDS011;18401;49.344;6.240;2023-04-12T04:38:05;10.73;;;3.72;;
31836;SDS011;18401;49.344;6.240;2023-04-12T04:40:31;6.40;;;3.40;;
31836;SDS011;18401;49.344;6.240;2023-04-12T04:42:57;6.97;;;3.80;;
31836;SDS011;18401;49.344;6.240;2023-04-12T04:45:23;7.50;;;3.95;;
31836;SDS011;18401;49.344;6.240;2023-04-12T04:47:53;16.00;;;5.50;;
31836;SDS011;18401;49.344;6.240;2023-04-12T04:50:20;14.95;;;4.47;;
31836;SDS011;18401;49.344;6.240;2023-04-12T04:52:47;8.45;;;4.18;;
31836;SDS011;18401;49.344;6.240;2023-04-12T04:55:13;13.05;;;3.47;;
31836;SDS011;18401;49.344;6.240;2023-04-12T04:57:41;15.52;;;4.30;;
31836;SDS011;18401;49.344;6.240;2023-04-12T05:00:07;15.40;;;4.22;;
31836;SDS011;18401;49.344;6.240;2023-04-12T05:02:37;6.93;;;3.60;;
31836;SDS011;18401;49.344;6.240;2023-04-12T05:05:10;13.52;;;4.07;;
31836;SDS011;18401;49.344;6.240;2023-04-12T05:07:40;11.90;;;3.70;;
31836;SDS011;18401;49.344;6.240;2023-04-12T05:10:07;11.05;;;4.70;;
31836;SDS011;18401;49.344;6.240;2023-04-12T05:12:34;15.82;;;4.15;;
31836;SDS011;18401;49.344;6.240;2023-04-12T05:15:02;17.48;;;4.35;;
31836;SDS011;18401;49.344;6.240;2023-04-12T05:17:28;9.82;;;4.00;;
31836;SDS011;18401;49.344;6.240;2023-04-12T05:19:54;12.07;;;4.15;;
31836;SDS011;18401;49.344;6.240;2023-04-12T05:22:20;9.60;;;4.00;;
31836;SDS011;18401;49.344;6.240;2023-04-12T05:24:49;7.65;;;3.72;;
31836;SDS011;18401;49.344;6.240;2023-04-12T05:27:15;10.70;;;4.25;;
31836;SDS011;18401;49.344;6.240;2023-04-12T05:29:43;20.05;;;4.93;;
31836;SDS011;18401;49.344;6.240;2023-04-12T05:32:10;16.02;;;4.68;;
31836;SDS011;18401;49.344;6.240;2023-04-12T05:34:35;17.40;;;5.30;;
31836;SDS011;18401;49.344;6.240;2023-04-12T05:37:02;10.23;;;4.70;;
31836;SDS011;18401;49.344;6.240;2023-04-12T05:39:28;9.02;;;4.97;;
31836;SDS011;18401;49.344;6.240;2023-04-12T05:41:54;14.90;;;4.43;;
31836;SDS011;18401;49.344;6.240;2023-04-12T05:44:19;15.63;;;4.53;;
31836;SDS011;18401;49.344;6.240;2023-04-12T05:46:45;11.63;;;4.95;;
31836;SDS011;18401;49.344;6.240;2023-04-12T05:49:11;15.90;;;5.25;;
31836;SDS011;18401;49.344;6.240;2023-04-12T05:51:37;11.00;;;4.50;;
31836;SDS011;18401;49.344;6.240;2023-04-12T05:54:02;10.23;;;4.20;;
31836;SDS011;18401;49.344;6.240;2023-04-12T05:56:31;16.08;;;4.47;;
31836;SDS011;18401;49.344;6.240;2023-04-12T05:58:57;11.65;;;4.47;;
31836;SDS011;18401;49.344;6.240;2023-04-12T06:01:25;12.38;;;4.28;;
31836;SDS011;18401;49.344;6.240;2023-04-12T06:03:58;12.38;;;4.03;;
31836;SDS011;18401;49.344;6.240;2023-04-12T06:06:26;13.02;;;4.78;;
31836;SDS011;18401;49.344;6.240;2023-04-12T06:08:54;9.88;;;4.45;;
31836;SDS011;18401;49.344;6.240;2023-04-12T06:11:21;8.18;;;3.67;;
31836;SDS011;18401;49.344;6.240;2023-04-12T06:13:48;10.32;;;3.78;;
31836;SDS011;18401;49.344;6.240;2023-04-12T06:16:14;12.18;;;3.90;;
31836;SDS011;18401;49.344;6.240;2023-04-12T06:18:39;7.72;;;3.67;;
31836;SDS011;18401;49.344;6.240;2023-04-12T06:21:05;11.32;;;3.70;;
31836;SDS011;18401;49.344;6.240;2023-04-12T06:23:31;17.27;;;3.92;;
31836;SDS011;18401;49.344;6.240;2023-04-12T06:25:57;12.43;;;3.22;;
31836;SDS011;18401;49.344;6.240;2023-04-12T06:28:22;13.80;;;3.97;;
31836;SDS011;18401;49.344;6.240;2023-04-12T06:30:48;11.73;;;4.03;;
31836;SDS011;18401;49.344;6.240;2023-04-12T06:33:14;9.25;;;3.40;;
31836;SDS011;18401;49.344;6.240;2023-04-12T06:35:40;6.95;;;3.53;;
31836;SDS011;18401;49.344;6.240;2023-04-12T06:38:05;16.48;;;4.10;;
31836;SDS011;18401;49.344;6.240;2023-04-12T06:40:31;11.73;;;3.83;;
31836;SDS011;18401;49.344;6.240;2023-04-12T06:42:57;10.75;;;3.58;;
31836;SDS011;18401;49.344;6.240;2023-04-12T06:45:23;17.95;;;3.63;;
31836;SDS011;18401;49.344;6.240;2023-04-12T06:47:48;9.48;;;3.58;;
31836;SDS011;18401;49.344;6.240;2023-04-12T06:50:14;11.68;;;3.53;;
31836;SDS011;18401;49.344;6.240;2023-04-12T06:52:42;13.38;;;3.97;;
31836;SDS011;18401;49.344;6.240;2023-04-12T06:55:08;11.63;;;4.40;;
31836;SDS011;18401;49.344;6.240;2023-04-12T06:57:34;15.45;;;3.72;;
31836;SDS011;18401;49.344;6.240;2023-04-12T06:59:59;7.70;;;3.05;;
31836;SDS011;18401;49.344;6.240;2023-04-12T07:02:26;10.45;;;3.45;;
31836;SDS011;18401;49.344;6.240;2023-04-12T07:04:52;16.92;;;3.83;;
31836;SDS011;18401;49.344;6.240;2023-04-12T07:07:18;9.60;;;4.15;;
31836;SDS011;18401;49.344;6.240;2023-04-12T07:09:47;7.55;;;3.75;;
31836;SDS011;18401;49.344;6.240;2023-04-12T07:12:12;14.80;;;4.28;;
31836;SDS011;18401;49.344;6.240;2023-04-12T07:14:38;10.90;;;3.92;;
31836;SDS011;18401;49.344;6.240;2023-04-12T07:17:04;12.45;;;4.07;;
31836;SDS011;18401;49.344;6.240;2023-04-12T07:19:30;13.20;;;4.28;;
31836;SDS011;18401;49.344;6.240;2023-04-12T07:21:56;9.30;;;3.63;;
31836;SDS011;18401;49.344;6.240;2023-04-12T07:24:22;16.05;;;3.97;;
31836;SDS011;18401;49.344;6.240;2023-04-12T07:26:48;17.02;;;4.10;;
31836;SDS011;18401;49.344;6.240;2023-04-12T07:29:16;20.10;;;3.83;;
31836;SDS011;18401;49.344;6.240;2023-04-12T07:31:42;11.32;;;4.10;;
31836;SDS011;18401;49.344;6.240;2023-04-12T07:34:08;11.25;;;4.57;;
31836;SDS011;18401;49.344;6.240;2023-04-12T07:36:34;12.20;;;4.45;;
31836;SDS011;18401;49.344;6.240;2023-04-12T07:38:59;16.23;;;4.13;;
31836;SDS011;18401;49.344;6.240;2023-04-12T07:41:25;17.85;;;3.97;;
31836;SDS011;18401;49.344;6.240;2023-04-12T07:43:51;9.23;;;3.58;;
31836;SDS011;18401;49.344;6.240;2023-04-12T07:46:16;10.55;;;4.20;;
31836;SDS011;18401;49.344;6.240;2023-04-12T07:48:42;10.07;;;3.67;;
31836;SDS011;18401;49.344;6.240;2023-04-12T07:51:08;13.00;;;3.95;;
31836;SDS011;18401;49.344;6.240;2023-04-12T07:53:34;11.75;;;3.30;;
31836;SDS011;18401;49.344;6.240;2023-04-12T07:55:59;11.07;;;3.03;;
31836;SDS011;18401;49.344;6.240;2023-04-12T07:58:27;7.97;;;3.08;;
31836;SDS011;18401;49.344;6.240;2023-04-12T08:00:53;7.50;;;3.05;;
31836;SDS011;18401;49.344;6.240;2023-04-12T08:03:19;10.10;;;2.90;;
31836;SDS011;18401;49.344;6.240;2023-04-12T08:05:44;11.05;;;3.20;;
31836;SDS011;18401;49.344;6.240;2023-04-12T08:08:13;8.50;;;2.50;;
31836;SDS011;18401;49.344;6.240;2023-04-12T08:10:39;7.93;;;3.03;;
31836;SDS011;18401;49.344;6.240;2023-04-12T08:13:05;5.90;;;2.20;;
31836;SDS011;18401;49.344;6.240;2023-04-12T08:15:31;5.90;;;2.35;;
31836;SDS011;18401;49.344;6.240;2023-04-12T08:17:57;9.05;;;3.00;;
31836;SDS011;18401;49.344;6.240;2023-04-12T08:20:22;14.98;;;2.03;;
31836;SDS011;18401;49.344;6.240;2023-04-12T08:22:48;9.73;;;1.95;;
31836;SDS011;18401;49.344;6.240;2023-04-12T08:25:16;6.22;;;2.05;;
31836;SDS011;18401;49.344;6.240;2023-04-12T08:27:41;4.97;;;1.95;;
31836;SDS011;18401;49.344;6.240;2023-04-12T08:30:08;7.07;;;1.80;;
31836;SDS011;18401;49.344;6.240;2023-04-12T08:32:35;5.30;;;1.55;;
31836;SDS011;18401;49.344;6.240;2023-04-12T08:35:04;5.43;;;2.25;;
31836;SDS011;18401;49.344;6.240;2023-04-12T08:37:30;6.25;;;1.80;;
31836;SDS011;18401;49.344;6.240;2023-04-12T08:39:58;3.53;;;1.63;;
31836;SDS011;18401;49.344;6.240;2023-04-12T08:42:24;6.55;;;1.70;;
31836;SDS011;18401;49.344;6.240;2023-04-12T08:44:50;2.97;;;1.58;;
31836;SDS011;18401;49.344;6.240;2023-04-12T08:47:17;8.43;;;1.90;;
31836;SDS011;18401;49.344;6.240;2023-04-12T08:49:45;7.03;;;1.63;;
31836;SDS011;18401;49.344;6.240;2023-04-12T08:52:12;4.60;;;1.33;;
31836;SDS011;18401;49.344;6.240;2023-04-12T08:54:38;3.55;;;1.23;;
31836;SDS011;18401;49.344;6.240;2023-04-12T08:57:06;3.35;;;1.60;;
31836;SDS011;18401;49.344;6.240;2023-04-12T08:59:34;4.85;;;1.73;;
31836;SDS011;18401;49.344;6.240;2023-04-12T09:02:01;1.52;;;1.20;;
31836;SDS011;18401;49.344;6.240;2023-04-12T09:04:27;3.60;;;1.35;;
31836;SDS011;18401;49.344;6.240;2023-04-12T09:06:53;4.07;;;1.48;;
31836;SDS011;18401;49.344;6.240;2023-04-12T09:09:30;2.50;;;1.50;;
31836;SDS011;18401;49.344;6.240;2023-04-12T09:12:09;6.15;;;1.60;;
31836;SDS011;18401;49.344;6.240;2023-04-12T09:14:36;5.13;;;1.83;;
31836;SDS011;18401;49.344;6.240;2023-04-12T09:17:03;2.63;;;1.50;;
31836;SDS011;18401;49.344;6.240;2023-04-12T09:19:33;1.80;;;1.15;;
31836;SDS011;18401;49.344;6.240;2023-04-12T09:22:00;1.20;;;1.10;;
31836;SDS011;18401;49.344;6.240;2023-04-12T09:24:26;4.85;;;1.85;;
31836;SDS011;18401;49.344;6.240;2023-04-12T09:27:00;1.67;;;1.30;;
31836;SDS011;18401;49.344;6.240;2023-04-12T09:29:30;4.85;;;1.45;;
31836;SDS011;18401;49.344;6.240;2023-04-12T09:34:27;3.90;;;1.30;;
31836;SDS011;18401;49.344;6.240;2023-04-12T09:36:53;2.60;;;1.38;;
31836;SDS011;18401;49.344;6.240;2023-04-12T09:39:28;8.52;;;1.13;;
31836;SDS011;18401;49.344;6.240;2023-04-12T09:42:04;1.65;;;1.00;;
31836;SDS011;18401;49.344;6.240;2023-04-12T09:44:31;1.45;;;0.90;;
31836;SDS011;18401;49.344;6.240;2023-04-12T09:46:58;2.53;;;0.80;;
31836;SDS011;18401;49.344;6.240;2023-04-12T09:49:39;4.00;;;1.25;;
31836;SDS011;18401;49.344;6.240;2023-04-12T09:52:06;0.77;;;0.77;;
31836;SDS011;18401;49.344;6.240;2023-04-12T09:54:36;0.90;;;0.80;;
31836;SDS011;18401;49.344;6.240;2023-04-12T09:57:12;2.53;;;0.75;;
31836;SDS011;18401;49.344;6.240;2023-04-12T09:59:41;2.85;;;0.68;;
31836;SDS011;18401;49.344;6.240;2023-04-12T10:02:15;0.85;;;0.70;;
31836;SDS011;18401;49.344;6.240;2023-04-12T10:04:42;2.50;;;0.70;;
31836;SDS011;18401;49.344;6.240;2023-04-12T10:07:08;2.85;;;0.60;;
31836;SDS011;18401;49.344;6.240;2023-04-12T10:09:37;0.45;;;0.43;;
31836;SDS011;18401;49.344;6.240;2023-04-12T10:12:04;1.75;;;0.55;;
31836;SDS011;18401;49.344;6.240;2023-04-12T10:14:31;0.47;;;0.43;;
31836;SDS011;18401;49.344;6.240;2023-04-12T10:16:58;0.40;;;0.40;;
31836;SDS011;18401;49.344;6.240;2023-04-12T10:19:25;0.50;;;0.50;;
31836;SDS011;18401;49.344;6.240;2023-04-12T10:21:53;2.25;;;1.00;;
31836;SDS011;18401;49.344;6.240;2023-04-12T10:24:20;0.73;;;0.73;;
31836;SDS011;18401;49.344;6.240;2023-04-12T10:26:47;0.60;;;0.60;;
31836;SDS011;18401;49.344;6.240;2023-04-12T10:29:21;0.60;;;0.60;;
31836;SDS011;18401;49.344;6.240;2023-04-12T10:31:51;0.60;;;0.60;;
31836;SDS011;18401;49.344;6.240;2023-04-12T10:34:22;1.40;;;0.30;;
31836;SDS011;18401;49.344;6.240;2023-04-12T10:36:52;1.75;;;0.57;;
31836;SDS011;18401;49.344;6.240;2023-04-12T10:44:51;0.40;;;0.40;;
31836;SDS011;18401;49.344;6.240;2023-04-12T10:50:26;0.20;;;0.20;;
31836;SDS011;18401;49.344;6.240;2023-04-12T10:55:42;0.75;;;0.30;;
31836;SDS011;18401;49.344;6.240;2023-04-12T10:58:09;0.75;;;0.40;;
31836;SDS011;18401;49.344;6.240;2023-04-12T11:03:22;0.38;;;0.38;;
31836;SDS011;18401;49.344;6.240;2023-04-12T11:05:55;0.40;;;0.40;;
31836;SDS011;18401;49.344;6.240;2023-04-12T11:08:23;0.70;;;0.32;;
31836;SDS011;18401;49.344;6.240;2023-04-12T11:10:50;0.30;;;0.30;;
31836;SDS011;18401;49.344;6.240;2023-04-12T11:13:16;0.30;;;0.30;;
31836;SDS011;18401;49.344;6.240;2023-04-12T11:15:42;0.40;;;0.30;;
31836;SDS011;18401;49.344;6.240;2023-04-12T11:18:08;0.60;;;0.38;;
31836;SDS011;18401;49.344;6.240;2023-04-12T11:20:34;0.55;;;0.25;;
31836;SDS011;18401;49.344;6.240;2023-04-12T11:23:04;0.68;;;0.28;;
31836;SDS011;18401;49.344;6.240;2023-04-12T11:25:30;0.55;;;0.35;;
31836;SDS011;18401;49.344;6.240;2023-04-12T11:27:56;1.55;;;0.32;;
31836;SDS011;18401;49.344;6.240;2023-04-12T11:30:23;0.30;;;0.30;;
31836;SDS011;18401;49.344;6.240;2023-04-12T11:32:49;0.20;;;0.20;;
31836;SDS011;18401;49.344;6.240;2023-04-12T11:35:14;0.20;;;0.20;;
31836;SDS011;18401;49.344;6.240;2023-04-12T11:37:41;0.28;;;0.28;;
31836;SDS011;18401;49.344;6.240;2023-04-12T11:40:07;0.47;;;0.40;;
31836;SDS011;18401;49.344;6.240;2023-04-12T11:42:33;0.30;;;0.30;;
31836;SDS011;18401;49.344;6.240;2023-04-12T11:44:59;0.55;;;0.30;;
31836;SDS011;18401;49.344;6.240;2023-04-12T11:47:25;0.40;;;0.30;;
31836;SDS011;18401;49.344;6.240;2023-04-12T11:49:55;0.30;;;0.30;;
31836;SDS011;18401;49.344;6.240;2023-04-12T11:52:28;0.30;;;0.30;;
31836;SDS011;18401;49.344;6.240;2023-04-12T11:54:55;0.28;;;0.28;;
31836;SDS011;18401;49.344;6.240;2023-04-12T11:57:23;0.30;;;0.30;;
31836;SDS011;18401;49.344;6.240;2023-04-12T11:59:49;0.22;;;0.22;;
31836;SDS011;18401;49.344;6.240;2023-04-12T12:02:15;0.20;;;0.20;;
31836;SDS011;18401;49.344;6.240;2023-04-12T12:04:43;0.35;;;0.30;;
31836;SDS011;18401;49.344;6.240;2023-04-12T12:07:11;0.65;;;0.50;;
31836;SDS011;18401;49.344;6.240;2023-04-12T12:09:38;0.43;;;0.43;;
31836;SDS011;18401;49.344;6.240;2023-04-12T12:12:05;0.38;;;0.38;;
31836;SDS011;18401;49.344;6.240;2023-04-12T12:14:32;0.30;;;0.30;;
31836;SDS011;18401;49.344;6.240;2023-04-12T12:17:00;0.30;;;0.30;;
31836;SDS011;18401;49.344;6.240;2023-04-12T12:19:29;0.30;;;0.30;;
31836;SDS011;18401;49.344;6.240;2023-04-12T12:22:12;1.45;;;0.45;;
31836;SDS011;18401;49.344;6.240;2023-04-12T12:24:54;0.45;;;0.32;;
31836;SDS011;18401;49.344;6.240;2023-04-12T12:27:21;0.45;;;0.45;;
31836;SDS011;18401;49.344;6.240;2023-04-12T12:30:02;0.30;;;0.30;;
31836;SDS011;18401;49.344;6.240;2023-04-12T12:32:35;0.38;;;0.38;;
31836;SDS011;18401;49.344;6.240;2023-04-12T12:35:06;0.40;;;0.40;;
31836;SDS011;18401;49.344;6.240;2023-04-12T12:37:36;0.47;;;0.47;;
31836;SDS011;18401;49.344;6.240;2023-04-12T12:40:02;0.52;;;0.52;;
31836;SDS011;18401;49.344;6.240;2023-04-12T12:42:42;0.50;;;0.50;;
31836;SDS011;18401;49.344;6.240;2023-04-12T12:45:09;0.40;;;0.40;;
31836;SDS011;18401;49.344;6.240;2023-04-12T12:47:45;0.43;;;0.43;;
31836;SDS011;18401;49.344;6.240;2023-04-12T12:50:18;0.50;;;0.50;;
31836;SDS011;18401;49.344;6.240;2023-04-12T12:52:47;0.40;;;0.40;;
31836;SDS011;18401;49.344;6.240;2023-04-12T12:55:13;2.35;;;0.40;;
31836;SDS011;18401;49.344;6.240;2023-04-12T12:57:43;0.40;;;0.30;;
31836;SDS011;18401;49.344;6.240;2023-04-12T13:00:13;1.88;;;0.40;;
31836;SDS011;18401;49.344;6.240;2023-04-12T13:02:40;3.47;;;0.40;;
31836;SDS011;18401;49.344;6.240;2023-04-12T13:05:06;0.38;;;0.38;;
31836;SDS011;18401;49.344;6.240;2023-04-12T13:07:33;0.35;;;0.35;;
31836;SDS011;18401;49.344;6.240;2023-04-12T13:09:59;1.02;;;0.43;;
31836;SDS011;18401;49.344;6.240;2023-04-12T13:12:24;1.33;;;0.40;;
31836;SDS011;18401;49.344;6.240;2023-04-12T13:14:51;0.40;;;0.40;;
31836;SDS011;18401;49.344;6.240;2023-04-12T13:17:17;1.33;;;0.70;;
31836;SDS011;18401;49.344;6.240;2023-04-12T13:19:46;3.60;;;0.73;;
31836;SDS011;18401;49.344;6.240;2023-04-12T13:22:12;1.60;;;0.60;;
31836;SDS011;18401;49.344;6.240;2023-04-12T13:24:39;0.50;;;0.50;;
31836;SDS011;18401;49.344;6.240;2023-04-12T13:27:05;1.15;;;0.60;;
31836;SDS011;18401;49.344;6.240;2023-04-12T13:29:32;1.40;;;0.73;;
31836;SDS011;18401;49.344;6.240;2023-04-12T13:31:58;0.45;;;0.45;;
31836;SDS011;18401;49.344;6.240;2023-04-12T13:34:23;4.35;;;0.60;;
31836;SDS011;18401;49.344;6.240;2023-04-12T13:36:49;0.60;;;0.40;;
31836;SDS011;18401;49.344;6.240;2023-04-12T13:39:15;0.40;;;0.40;;
31836;SDS011;18401;49.344;6.240;2023-04-12T13:41:41;0.38;;;0.35;;
31836;SDS011;18401;49.344;6.240;2023-04-12T13:44:07;3.50;;;0.50;;
31836;SDS011;18401;49.344;6.240;2023-04-12T13:46:33;1.10;;;0.38;;
31836;SDS011;18401;49.344;6.240;2023-04-12T13:48:58;0.43;;;0.40;;
31836;SDS011;18401;49.344;6.240;2023-04-12T13:51:24;2.92;;;0.30;;
31836;SDS011;18401;49.344;6.240;2023-04-12T13:53:51;0.60;;;0.22;;
31836;SDS011;18401;49.344;6.240;2023-04-12T13:56:17;1.65;;;0.40;;
31836;SDS011;18401;49.344;6.240;2023-04-12T13:58:42;0.43;;;0.40;;
31836;SDS011;18401;49.344;6.240;2023-04-12T14:01:08;3.97;;;0.60;;
31836;SDS011;18401;49.344;6.240;2023-04-12T14:03:34;0.52;;;0.35;;
31836;SDS011;18401;49.344;6.240;2023-04-12T14:06:00;0.30;;;0.30;;
31836;SDS011;18401;49.344;6.240;2023-04-12T14:08:27;0.82;;;0.40;;
31836;SDS011;18401;49.344;6.240;2023-04-12T14:10:54;0.63;;;0.20;;
31836;SDS011;18401;49.344;6.240;2023-04-12T14:13:20;0.73;;;0.40;;
31836;SDS011;18401;49.344;6.240;2023-04-12T14:15:47;1.38;;;0.38;;
31836;SDS011;18401;49.344;6.240;2023-04-12T14:18:14;2.78;;;0.50;;
31836;SDS011;18401;49.344;6.240;2023-04-12T14:20:40;0.43;;;0.30;;
31836;SDS011;18401;49.344;6.240;2023-04-12T14:23:05;1.02;;;0.30;;
31836;SDS011;18401;49.344;6.240;2023-04-12T14:25:31;1.90;;;0.30;;
31836;SDS011;18401;49.344;6.240;2023-04-12T14:27:58;0.43;;;0.30;;
31836;SDS011;18401;49.344;6.240;2023-04-12T14:30:24;2.42;;;0.40;;
31836;SDS011;18401;49.344;6.240;2023-04-12T14:32:51;1.08;;;0.90;;
31836;SDS011;18401;49.344;6.240;2023-04-12T14:35:16;1.15;;;0.40;;
31836;SDS011;18401;49.344;6.240;2023-04-12T14:37:42;1.20;;;0.52;;
31836;SDS011;18401;49.344;6.240;2023-04-12T14:40:08;0.52;;;0.40;;
31836;SDS011;18401;49.344;6.240;2023-04-12T14:42:34;3.30;;;0.82;;
31836;SDS011;18401;49.344;6.240;2023-04-12T14:44:59;2.80;;;0.50;;
31836;SDS011;18401;49.344;6.240;2023-04-12T14:47:25;1.85;;;0.40;;
31836;SDS011;18401;49.344;6.240;2023-04-12T14:49:51;1.30;;;0.50;;
31836;SDS011;18401;49.344;6.240;2023-04-12T14:52:17;0.93;;;0.50;;
31836;SDS011;18401;49.344;6.240;2023-04-12T14:54:42;0.93;;;0.35;;
31836;SDS011;18401;49.344;6.240;2023-04-12T14:57:08;1.35;;;0.30;;
31836;SDS011;18401;49.344;6.240;2023-04-12T14:59:35;0.77;;;0.50;;
31836;SDS011;18401;49.344;6.240;2023-04-12T15:02:00;0.73;;;0.38;;
31836;SDS011;18401;49.344;6.240;2023-04-12T15:04:26;1.38;;;0.40;;
31836;SDS011;18401;49.344;6.240;2023-04-12T15:06:52;3.33;;;0.40;;
31836;SDS011;18401;49.344;6.240;2023-04-12T15:09:18;0.75;;;0.40;;
31836;SDS011;18401;49.344;6.240;2023-04-12T15:11:47;3.72;;;0.63;;
31836;SDS011;18401;49.344;6.240;2023-04-12T15:14:14;1.42;;;0.47;;
31836;SDS011;18401;49.344;6.240;2023-04-12T15:16:44;2.20;;;0.45;;